createdAt,value
2023-04-26T00:00:11.943Z,64.80
2023-04-26T00:03:08.078Z,61.79
2023-04-26T00:05:37.748Z,57.29
2023-04-26T00:08:08.140Z,56.24
2023-04-26T00:10:36.049Z,58.06
2023-04-26T00:13:04.435Z,60.53
2023-04-26T00:15:37.021Z,65.13
2023-04-26T00:18:05.525Z,64.74
2023-04-26T00:20:34.154Z,60.58
2023-04-26T00:23:06.304Z,58.02
2023-04-26T00:25:34.329Z,59.29
2023-04-26T00:28:05.157Z,63.48
2023-04-26T00:30:37.811Z,63.68
2023-04-26T00:33:08.952Z,62.23
2023-04-26T00:35:41.357Z,58.46
2023-04-26T00:38:09.508Z,57.60
2023-04-26T00:40:37.427Z,59.61
2023-04-26T00:43:07.018Z,62.60
2023-04-26T00:45:38.264Z,65.31
2023-04-26T00:48:08.725Z,64.08
2023-04-26T00:50:37.678Z,63.17
2023-04-26T00:53:08.509Z,57.95
2023-04-26T00:55:44.182Z,57.57
2023-04-26T00:58:12.917Z,59.99
2023-04-26T01:00:40.670Z,61.65
2023-04-26T01:03:11.430Z,64.36
2023-04-26T01:05:41.377Z,63.61
2023-04-26T01:08:09.896Z,60.41
2023-04-26T01:10:40.105Z,58.31
2023-04-26T01:13:08.793Z,58.31
2023-04-26T01:15:37.569Z,60.18
2023-04-26T01:18:06.454Z,61.48
2023-04-26T01:20:36.714Z,65.07
2023-04-26T01:23:06.478Z,61.61
2023-04-26T01:25:35.781Z,57.03
2023-04-26T01:28:06.356Z,56.70
2023-04-26T01:30:41.466Z,59.65
2023-04-26T01:33:11.144Z,63.44
2023-04-26T01:35:39.116Z,64.17
2023-04-26T01:38:08.861Z,59.89
2023-04-26T01:40:37.276Z,57.15
2023-04-26T01:43:05.294Z,57.02
2023-04-26T01:45:34.690Z,58.18
2023-04-26T01:48:03.012Z,59.77
2023-04-26T01:50:34.472Z,63.80
2023-04-26T01:53:04.979Z,62.26
2023-04-26T01:55:34.345Z,58.68
2023-04-26T01:58:03.056Z,58.00
2023-04-26T02:00:31.403Z,60.33
2023-04-26T02:02:59.292Z,62.17
2023-04-26T02:05:28.346Z,64.90
2023-04-26T02:07:56.702Z,63.15
2023-04-26T02:10:25.915Z,58.38
2023-04-26T02:12:53.841Z,55.26
2023-04-26T02:15:22.236Z,57.89
2023-04-26T02:17:53.858Z,58.60
2023-04-26T02:20:21.958Z,62.44
2023-04-26T02:22:49.807Z,64.32
2023-04-26T02:25:17.725Z,61.80
2023-04-26T02:27:47.213Z,57.08
2023-04-26T02:30:15.188Z,56.62
2023-04-26T02:32:43.216Z,58.69
2023-04-26T02:35:12.469Z,60.64
2023-04-26T02:37:41.855Z,61.85
2023-04-26T02:40:13.984Z,65.04
2023-04-26T02:42:52.437Z,62.08
2023-04-26T02:45:21.881Z,54.88
2023-04-26T02:47:51.337Z,54.56
2023-04-26T02:50:19.489Z,56.59
2023-04-26T02:52:47.677Z,58.88
2023-04-26T02:55:15.696Z,60.72
2023-04-26T02:57:43.577Z,60.12
2023-04-26T03:00:14.636Z,62.02
2023-04-26T03:02:43.797Z,64.58
2023-04-26T03:05:14.674Z,62.11
2023-04-26T03:07:46.493Z,54.65
2023-04-26T03:10:14.715Z,54.50
2023-04-26T03:12:42.640Z,56.95
2023-04-26T03:15:14.216Z,58.85
2023-04-26T03:17:43.404Z,59.32
2023-04-26T03:20:12.842Z,61.82
2023-04-26T03:22:40.950Z,64.57
2023-04-26T03:25:11.737Z,59.92
2023-04-26T03:27:40.104Z,56.64
2023-04-26T03:30:08.986Z,56.75
2023-04-26T03:32:36.923Z,59.53
2023-04-26T03:35:05.546Z,61.35
2023-04-26T03:37:33.342Z,63.56
2023-04-26T03:40:02.296Z,66.55
2023-04-26T03:42:30.892Z,61.71
2023-04-26T03:44:58.982Z,59.21
2023-04-26T03:47:27.172Z,55.73
2023-04-26T03:49:55.428Z,56.63
2023-04-26T03:52:25.358Z,59.66
2023-04-26T03:54:53.541Z,60.24
2023-04-26T03:57:21.743Z,62.49
2023-04-26T03:59:50.309Z,63.97
2023-04-26T04:02:20.572Z,65.88
2023-04-26T04:04:49.514Z,57.89
2023-04-26T04:07:19.142Z,52.55
2023-04-26T04:09:47.236Z,54.05
2023-04-26T04:12:15.338Z,54.60
2023-04-26T04:14:43.533Z,58.44
2023-04-26T04:17:12.015Z,61.23
2023-04-26T04:19:39.887Z,65.11
2023-04-26T04:22:08.403Z,59.99
2023-04-26T04:24:36.248Z,53.24
2023-04-26T04:27:05.420Z,53.45
2023-04-26T04:29:35.090Z,57.07
2023-04-26T04:32:02.930Z,59.64
2023-04-26T04:34:36.394Z,60.65
2023-04-26T04:37:04.498Z,63.43
2023-04-26T04:39:32.441Z,65.06
2023-04-26T04:42:00.826Z,57.64
2023-04-26T04:44:31.176Z,52.34
2023-04-26T04:46:59.946Z,55.12
2023-04-26T04:49:32.218Z,57.67
2023-04-26T04:52:00.398Z,59.64
2023-04-26T04:54:28.591Z,59.57
2023-04-26T04:56:57.604Z,62.28
2023-04-26T04:59:28.113Z,63.16
2023-04-26T05:01:56.701Z,57.93
2023-04-26T05:04:25.543Z,55.86
2023-04-26T05:06:53.604Z,57.29
2023-04-26T05:09:21.659Z,59.65
2023-04-26T05:11:49.555Z,60.74
2023-04-26T05:14:17.459Z,61.11
2023-04-26T05:16:45.876Z,62.78
2023-04-26T05:19:14.918Z,60.15
2023-04-26T05:21:42.865Z,56.36
2023-04-26T05:24:11.098Z,57.65
2023-04-26T05:26:39.199Z,59.88
2023-04-26T05:29:07.776Z,60.79
2023-04-26T05:31:35.953Z,61.96
2023-04-26T05:34:04.364Z,63.05
2023-04-26T05:36:32.838Z,60.18
2023-04-26T05:39:00.608Z,55.80
2023-04-26T05:41:28.724Z,56.25
2023-04-26T05:43:57.205Z,57.65
2023-04-26T05:46:25.680Z,58.71
2023-04-26T05:48:53.777Z,59.38
2023-04-26T05:51:24.513Z,59.74
2023-04-26T05:53:52.560Z,60.65
2023-04-26T05:56:21.574Z,60.83
2023-04-26T05:58:50.834Z,61.53
2023-04-26T06:01:19.019Z,61.58
2023-04-26T06:03:47.648Z,61.58
2023-04-26T06:06:16.152Z,61.64
2023-04-26T06:08:46.545Z,61.85
2023-04-26T06:11:14.670Z,61.93
2023-04-26T06:13:42.440Z,61.67
2023-04-26T06:16:12.797Z,57.32
2023-04-26T06:18:40.964Z,56.30
2023-04-26T06:21:09.924Z,56.54
2023-04-26T06:23:37.799Z,57.70
2023-04-26T06:26:05.868Z,58.20
2023-04-26T06:28:33.680Z,58.66
2023-04-26T06:31:01.834Z,58.84
2023-04-26T06:33:29.801Z,58.75
2023-04-26T06:35:57.894Z,58.88
2023-04-26T06:38:28.550Z,59.06
2023-04-26T06:40:56.958Z,58.89
2023-04-26T06:43:27.897Z,58.23
2023-04-26T06:45:56.603Z,57.93
2023-04-26T06:48:26.090Z,57.99
2023-04-26T06:50:55.081Z,58.01
2023-04-26T06:53:23.500Z,57.58
2023-04-26T06:55:53.416Z,58.05
2023-04-26T06:58:22.037Z,57.74
2023-04-26T07:00:51.107Z,57.78
2023-04-26T07:03:19.827Z,57.79
2023-04-26T07:05:49.769Z,58.67
2023-04-26T07:08:19.739Z,59.03
2023-04-26T07:10:48.945Z,58.89
2023-04-26T07:13:17.052Z,59.04
2023-04-26T07:15:46.878Z,58.26
2023-04-26T07:18:15.104Z,57.88
2023-04-26T07:20:42.909Z,57.50
2023-04-26T07:23:10.713Z,57.02
2023-04-26T07:25:39.741Z,57.24
2023-04-26T07:28:08.802Z,57.13
2023-04-26T07:30:36.704Z,56.55
2023-04-26T07:33:05.256Z,56.67
2023-04-26T07:35:38.315Z,56.28
2023-04-26T07:38:07.574Z,56.55
2023-04-26T07:40:37.158Z,56.21
2023-04-26T07:43:05.586Z,55.98
2023-04-26T07:45:36.876Z,55.46
2023-04-26T07:48:05.221Z,54.00
2023-04-26T07:50:33.606Z,54.10
2023-04-26T07:53:01.864Z,54.14
2023-04-26T07:55:30.228Z,54.93
2023-04-26T07:57:58.219Z,55.14
2023-04-26T08:00:27.598Z,55.15
2023-04-26T08:02:56.095Z,54.75
2023-04-26T08:05:26.174Z,54.30
2023-04-26T08:07:55.987Z,53.43
2023-04-26T08:10:24.549Z,53.39
2023-04-26T08:12:53.685Z,53.13
2023-04-26T08:15:24.392Z,52.61
2023-04-26T08:17:53.487Z,50.68
2023-04-26T08:20:23.007Z,51.53
2023-04-26T08:22:57.628Z,52.23
2023-04-26T08:25:27.181Z,51.32
2023-04-26T08:27:55.959Z,50.27
2023-04-26T08:30:27.124Z,50.09
2023-04-26T08:32:55.170Z,49.89
2023-04-26T08:35:23.908Z,50.15
2023-04-26T08:37:52.102Z,49.52
2023-04-26T08:40:34.490Z,49.02
2023-04-26T08:43:02.675Z,49.48
2023-04-26T08:45:35.605Z,50.05
2023-04-26T08:48:14.937Z,50.03
2023-04-26T08:50:50.288Z,49.68
2023-04-26T08:53:22.560Z,48.85
2023-04-26T08:55:54.362Z,48.92
2023-04-26T08:58:23.771Z,48.85
2023-04-26T09:00:55.444Z,49.64
2023-04-26T09:03:26.811Z,50.54
2023-04-26T09:05:56.381Z,51.40
2023-04-26T09:08:27.072Z,51.84
2023-04-26T09:11:00.358Z,52.28
2023-04-26T09:13:33.558Z,52.04
2023-04-26T09:16:03.519Z,51.40
2023-04-26T09:18:34.443Z,51.79
2023-04-26T09:21:10.368Z,51.30
2023-04-26T09:23:58.885Z,51.35
2023-04-26T09:26:29.117Z,51.14
2023-04-26T09:29:17.941Z,50.31
2023-04-26T09:31:50.736Z,50.04
2023-04-26T09:34:22.715Z,50.11
2023-04-26T09:36:58.210Z,48.75
2023-04-26T09:39:42.367Z,48.49
2023-04-26T09:42:11.432Z,47.52
2023-04-26T09:44:39.420Z,45.32
2023-04-26T09:47:12.384Z,44.50
2023-04-26T09:49:52.033Z,44.62
2023-04-26T09:52:22.194Z,44.64
2023-04-26T09:54:53.382Z,44.55
2023-04-26T09:57:24.110Z,44.44
2023-04-26T09:59:55.750Z,43.89
2023-04-26T10:02:27.857Z,45.44
2023-04-26T10:05:00.258Z,47.63
2023-04-26T10:07:31.065Z,49.47
2023-04-26T10:10:04.452Z,49.56
2023-04-26T10:12:33.797Z,51.09
2023-04-26T10:15:04.225Z,51.35
2023-04-26T10:17:32.760Z,51.08
2023-04-26T10:20:05.987Z,51.28
2023-04-26T10:22:44.606Z,51.39
2023-04-26T10:25:13.839Z,50.97
2023-04-26T10:27:53.007Z,50.61
2023-04-26T10:30:26.520Z,49.65
2023-04-26T10:33:02.684Z,48.99
2023-04-26T10:35:31.709Z,49.27
2023-04-26T10:38:02.242Z,49.48
2023-04-26T10:40:41.823Z,49.12
2023-04-26T10:43:15.479Z,48.90
2023-04-26T10:45:48.304Z,48.82
2023-04-26T10:48:31.506Z,49.11
2023-04-26T10:51:15.135Z,49.60
2023-04-26T10:53:49.367Z,50.21
2023-04-26T10:56:41.263Z,50.93
2023-04-26T10:59:36.120Z,51.10
2023-04-26T11:02:11.456Z,51.43
2023-04-26T11:04:55.613Z,52.05
2023-04-26T11:08:09.557Z,51.44
2023-04-26T11:10:39.817Z,49.59
2023-04-26T11:13:08.458Z,49.42
2023-04-26T11:15:36.804Z,49.21
2023-04-26T11:18:06.882Z,49.09
2023-04-26T11:20:38.062Z,48.25
2023-04-26T11:23:09.195Z,48.01
2023-04-26T11:25:40.283Z,48.41
2023-04-26T11:28:08.539Z,48.43
2023-04-26T11:30:36.945Z,48.00
2023-04-26T11:33:06.648Z,48.42
2023-04-26T11:35:36.522Z,48.27
2023-04-26T11:38:05.796Z,47.99
2023-04-26T11:40:36.683Z,47.21
2023-04-26T11:43:06.396Z,47.21
2023-04-26T11:45:37.181Z,47.42
2023-04-26T11:48:10.712Z,47.91
2023-04-26T11:50:40.602Z,49.16
2023-04-26T11:53:11.733Z,50.69
2023-04-26T11:55:39.895Z,51.31
2023-04-26T11:58:13.755Z,52.19
2023-04-26T12:00:59.756Z,52.99
2023-04-26T12:03:38.203Z,55.21
2023-04-26T12:06:07.053Z,56.23
2023-04-26T12:08:36.411Z,57.87
2023-04-26T12:11:04.699Z,57.70
2023-04-26T12:13:34.367Z,57.90
2023-04-26T12:16:22.293Z,57.83
2023-04-26T12:18:58.898Z,57.54
2023-04-26T12:21:30.854Z,57.00
2023-04-26T12:24:00.526Z,56.39
2023-04-26T12:26:45.182Z,55.97
2023-04-26T12:29:13.910Z,57.14
2023-04-26T12:31:42.073Z,56.74
2023-04-26T12:34:12.513Z,57.56
2023-04-26T12:36:44.469Z,57.49
2023-04-26T12:39:14.576Z,57.63
2023-04-26T12:41:43.737Z,57.27
2023-04-26T12:44:12.594Z,56.84
2023-04-26T12:46:41.916Z,55.25
2023-04-26T12:49:10.996Z,53.98
2023-04-26T12:51:39.303Z,54.33
2023-04-26T12:54:07.492Z,53.75
2023-04-26T12:56:40.788Z,53.42
2023-04-26T12:59:11.959Z,53.45
2023-04-26T13:01:39.936Z,53.17
2023-04-26T13:04:12.387Z,52.92
2023-04-26T13:06:40.841Z,52.18
2023-04-26T13:09:09.355Z,51.63
2023-04-26T13:11:38.592Z,51.59
2023-04-26T13:14:09.983Z,51.38
2023-04-26T13:16:42.834Z,49.82
2023-04-26T13:19:11.747Z,48.87
2023-04-26T13:21:42.255Z,48.69
2023-04-26T13:24:12.711Z,47.79
2023-04-26T13:26:41.385Z,47.64
2023-04-26T13:29:09.642Z,48.30
2023-04-26T13:31:37.533Z,49.03
2023-04-26T13:34:06.007Z,49.17
2023-04-26T13:36:34.274Z,49.96
2023-04-26T13:39:04.933Z,50.57
2023-04-26T13:41:36.239Z,50.45
2023-04-26T13:44:06.000Z,50.72
2023-04-26T13:46:35.675Z,50.58
2023-04-26T13:49:05.535Z,48.92
2023-04-26T13:51:34.859Z,48.47
2023-04-26T13:54:06.092Z,47.97
2023-04-26T13:56:34.560Z,47.67
2023-04-26T13:59:05.495Z,49.26
2023-04-26T14:01:36.981Z,51.35
2023-04-26T14:04:11.393Z,51.59
2023-04-26T14:06:39.476Z,53.44
2023-04-26T14:09:09.757Z,54.13
2023-04-26T14:11:37.790Z,55.42
2023-04-26T14:14:06.929Z,55.63
2023-04-26T14:16:35.462Z,56.14
2023-04-26T14:19:04.374Z,56.30
2023-04-26T14:21:32.427Z,57.18
2023-04-26T14:24:00.292Z,58.49
2023-04-26T14:26:28.179Z,59.60
2023-04-26T14:28:57.146Z,59.87
2023-04-26T14:31:26.344Z,61.10
2023-04-26T14:33:54.977Z,62.68
2023-04-26T14:36:23.018Z,58.18
2023-04-26T14:38:50.969Z,56.31
2023-04-26T14:41:21.638Z,56.06
2023-04-26T14:43:51.308Z,56.44
2023-04-26T14:46:20.593Z,55.25
2023-04-26T14:48:48.520Z,56.78
2023-04-26T14:51:16.358Z,57.93
2023-04-26T14:53:45.359Z,58.32
2023-04-26T14:56:13.679Z,58.89
2023-04-26T14:58:42.004Z,58.92
2023-04-26T15:01:10.661Z,60.24
2023-04-26T15:03:39.092Z,60.02
2023-04-26T15:06:10.025Z,60.07
2023-04-26T15:08:38.861Z,59.71
2023-04-26T15:11:06.586Z,59.33
2023-04-26T15:13:39.639Z,58.77
2023-04-26T15:16:09.859Z,58.64
2023-04-26T15:18:38.176Z,58.79
2023-04-26T15:21:09.355Z,59.22
2023-04-26T15:23:37.159Z,59.38
2023-04-26T15:26:05.189Z,59.83
2023-04-26T15:28:35.908Z,59.80
2023-04-26T15:31:08.019Z,60.38
2023-04-26T15:33:36.467Z,60.27
2023-04-26T15:36:05.558Z,60.78
2023-04-26T15:38:35.342Z,61.01
2023-04-26T15:41:07.219Z,61.33
2023-04-26T15:43:35.129Z,61.15
2023-04-26T15:46:05.086Z,61.38
2023-04-26T15:48:33.352Z,61.54
2023-04-26T15:51:06.676Z,61.56
2023-04-26T15:53:43.110Z,61.14
2023-04-26T15:56:20.814Z,60.62
2023-04-26T15:58:49.517Z,60.71
2023-04-26T16:01:18.872Z,60.61
2023-04-26T16:03:47.789Z,59.45
2023-04-26T16:06:16.867Z,57.73
2023-04-26T16:08:45.386Z,57.53
2023-04-26T16:11:14.722Z,57.65
2023-04-26T16:13:42.586Z,57.78
2023-04-26T16:16:11.882Z,57.99
2023-04-26T16:18:43.728Z,58.77
2023-04-26T16:21:13.204Z,58.35
2023-04-26T16:23:42.491Z,58.01
2023-04-26T16:26:11.012Z,58.01
2023-04-26T16:28:39.094Z,54.88
2023-04-26T16:31:09.079Z,55.30
2023-04-26T16:33:39.178Z,54.48
2023-04-26T16:36:09.726Z,52.57
2023-04-26T16:38:39.994Z,50.41
2023-04-26T16:41:11.424Z,49.86
2023-04-26T16:43:47.393Z,49.59
2023-04-26T16:46:18.101Z,50.31
2023-04-26T16:48:47.367Z,50.94
2023-04-26T16:51:15.181Z,50.68
2023-04-26T16:53:44.134Z,50.38
2023-04-26T16:56:14.806Z,50.21
2023-04-26T16:58:42.709Z,50.28
2023-04-26T17:01:11.091Z,50.50
2023-04-26T17:03:39.237Z,50.36
2023-04-26T17:06:13.274Z,50.35
2023-04-26T17:08:42.358Z,50.80
2023-04-26T17:11:15.728Z,50.48
2023-04-26T17:13:44.427Z,49.11
2023-04-26T17:16:12.949Z,48.93
2023-04-26T17:18:41.926Z,49.75
2023-04-26T17:21:10.879Z,49.48
2023-04-26T17:23:38.657Z,49.36
2023-04-26T17:26:08.938Z,50.00
2023-04-26T17:28:39.058Z,50.27
2023-04-26T17:31:06.911Z,49.30
2023-04-26T17:33:37.031Z,49.49
2023-04-26T17:36:05.457Z,49.97
2023-04-26T17:38:33.523Z,50.33
2023-04-26T17:41:01.994Z,50.26
2023-04-26T17:43:30.333Z,49.73
2023-04-26T17:45:58.334Z,49.79
2023-04-26T17:48:26.425Z,49.65
2023-04-26T17:50:54.744Z,49.87
2023-04-26T17:53:22.893Z,49.94
2023-04-26T17:55:53.388Z,49.91
2023-04-26T17:58:21.724Z,50.06
2023-04-26T18:00:50.961Z,50.45
2023-04-26T18:03:20.556Z,50.37
2023-04-26T18:05:48.926Z,49.90
2023-04-26T18:08:19.243Z,49.71
2023-04-26T18:10:48.584Z,49.59
2023-04-26T18:13:18.875Z,49.98
2023-04-26T18:15:47.586Z,50.19
2023-04-26T18:18:15.492Z,50.44
2023-04-26T18:20:43.916Z,50.98
2023-04-26T18:23:12.441Z,51.28
2023-04-26T18:25:40.883Z,51.45
2023-04-26T18:28:16.514Z,51.45
2023-04-26T18:30:44.601Z,51.72
2023-04-26T18:33:15.460Z,52.01
2023-04-26T18:35:44.240Z,52.05
2023-04-26T18:38:13.203Z,52.10
2023-04-26T18:40:46.408Z,52.38
2023-04-26T18:43:22.067Z,52.64
2023-04-26T18:45:51.643Z,53.05
2023-04-26T18:48:20.881Z,53.65
2023-04-26T18:50:54.494Z,53.30
2023-04-26T18:53:23.727Z,53.53
2023-04-26T18:55:54.430Z,53.73
2023-04-26T18:58:22.771Z,53.35
2023-04-26T19:00:54.319Z,53.33
2023-04-26T19:03:25.628Z,53.37
2023-04-26T19:05:55.726Z,53.72
2023-04-26T19:08:25.734Z,54.18
2023-04-26T19:10:53.702Z,54.21
2023-04-26T19:13:24.236Z,54.61
2023-04-26T19:15:52.057Z,54.60
2023-04-26T19:18:22.395Z,54.23
2023-04-26T19:20:51.549Z,54.10
2023-04-26T19:23:22.282Z,53.94
2023-04-26T19:25:50.227Z,54.06
2023-04-26T19:28:18.024Z,54.41
2023-04-26T19:30:48.370Z,54.49
2023-04-26T19:33:17.122Z,55.06
2023-04-26T19:35:46.470Z,55.01
2023-04-26T19:38:14.382Z,55.59
2023-04-26T19:40:46.443Z,55.80
2023-04-26T19:43:14.746Z,55.70
2023-04-26T19:45:47.908Z,56.13
2023-04-26T19:48:16.264Z,56.93
2023-04-26T19:50:47.522Z,57.35
2023-04-26T19:53:15.895Z,58.15
2023-04-26T19:55:46.005Z,58.86
2023-04-26T19:58:15.205Z,58.48
2023-04-26T20:00:45.817Z,58.44
2023-04-26T20:03:14.740Z,59.31
2023-04-26T20:05:44.144Z,60.06
2023-04-26T20:08:12.120Z,59.20
2023-04-26T20:10:42.306Z,59.59
2023-04-26T20:13:11.706Z,59.94
2023-04-26T20:15:39.636Z,60.22
2023-04-26T20:18:08.759Z,60.07
2023-04-26T20:20:37.992Z,60.02
2023-04-26T20:23:07.543Z,60.32
2023-04-26T20:25:35.345Z,60.51
2023-04-26T20:28:11.011Z,60.35
2023-04-26T20:30:39.003Z,60.54
2023-04-26T20:33:08.842Z,60.40
2023-04-26T20:35:37.004Z,60.87
2023-04-26T20:38:07.479Z,60.87
2023-04-26T20:40:39.213Z,60.95
2023-04-26T20:43:07.582Z,60.79
2023-04-26T20:45:35.714Z,60.38
2023-04-26T20:48:06.693Z,60.85
2023-04-26T20:50:36.590Z,61.03
2023-04-26T20:53:04.816Z,60.78
2023-04-26T20:55:35.736Z,61.23
2023-04-26T20:58:09.502Z,60.87
2023-04-26T21:00:37.696Z,60.99
2023-04-26T21:03:05.495Z,61.23
2023-04-26T21:05:36.057Z,61.15
2023-04-26T21:08:04.170Z,61.00
2023-04-26T21:10:31.947Z,61.18
2023-04-26T21:13:01.224Z,61.29
2023-04-26T21:15:30.928Z,61.67
2023-04-26T21:17:59.342Z,62.07
2023-04-26T21:20:27.220Z,71.37
2023-04-26T21:22:56.552Z,75.45
2023-04-26T21:25:24.520Z,62.22
2023-04-26T21:27:52.354Z,52.79
2023-04-26T21:30:20.409Z,49.10
2023-04-26T21:32:48.253Z,50.37
2023-04-26T21:35:19.863Z,51.07
2023-04-26T21:37:47.940Z,51.33
2023-04-26T21:40:15.836Z,53.02
2023-04-26T21:42:48.773Z,53.33
2023-04-26T21:45:22.321Z,53.75
2023-04-26T21:47:50.568Z,54.50
2023-04-26T21:50:18.991Z,55.08
2023-04-26T21:52:47.416Z,56.04
2023-04-26T21:55:15.488Z,57.30
2023-04-26T21:57:43.486Z,56.77
2023-04-26T22:00:13.273Z,57.70
2023-04-26T22:02:42.817Z,57.83
2023-04-26T22:05:13.684Z,57.41
2023-04-26T22:07:42.943Z,57.00
2023-04-26T22:10:11.698Z,58.07
2023-04-26T22:12:39.960Z,58.31
2023-04-26T22:15:08.687Z,57.71
2023-04-26T22:17:36.549Z,57.35
2023-04-26T22:20:05.483Z,57.39
2023-04-26T22:22:33.451Z,57.42
2023-04-26T22:25:03.228Z,57.92
2023-04-26T22:27:34.869Z,57.79
2023-04-26T22:30:16.155Z,57.58
2023-04-26T22:32:53.562Z,57.76
2023-04-26T22:35:25.123Z,58.06
2023-04-26T22:37:54.501Z,58.09
2023-04-26T22:40:22.828Z,57.85
2023-04-26T22:42:50.954Z,57.89
2023-04-26T22:45:19.641Z,57.91
2023-04-26T22:47:48.547Z,58.24
2023-04-26T22:50:16.741Z,58.33
2023-04-26T22:52:45.041Z,58.59
2023-04-26T22:55:12.986Z,58.42
2023-04-26T22:57:41.201Z,58.55
2023-04-26T23:00:12.318Z,58.43
2023-04-26T23:02:40.936Z,58.41
2023-04-26T23:05:10.786Z,58.45
2023-04-26T23:07:41.314Z,58.54
2023-04-26T23:10:09.766Z,58.20
2023-04-26T23:12:37.856Z,58.22
2023-04-26T23:15:06.825Z,58.12
2023-04-26T23:17:35.709Z,58.25
2023-04-26T23:20:13.771Z,58.27
2023-04-26T23:22:44.887Z,58.36
2023-04-26T23:25:14.020Z,58.72
2023-04-26T23:27:42.126Z,58.25
2023-04-26T23:30:14.008Z,58.13
2023-04-26T23:32:41.934Z,58.47
2023-04-26T23:35:10.170Z,58.68
2023-04-26T23:37:38.099Z,59.25
2023-04-26T23:40:10.338Z,59.50
2023-04-26T23:42:38.186Z,60.03
2023-04-26T23:45:07.985Z,59.81
2023-04-26T23:47:36.201Z,59.90
2023-04-26T23:50:07.468Z,59.75
2023-04-26T23:52:36.172Z,59.61
2023-04-26T23:55:08.312Z,59.79
2023-04-26T23:57:38.600Z,59.77
